createdAt,value
2017-09-05T00:00:29.633Z,0
2017-09-05T00:01:10.153Z,0
2017-09-05T00:01:50.710Z,0
2017-09-05T00:02:31.227Z,0
2017-09-05T00:03:11.832Z,0
2017-09-05T00:03:52.364Z,0
2017-09-05T00:04:32.900Z,0
2017-09-05T00:05:13.430Z,0
2017-09-05T00:05:53.988Z,0
2017-09-05T00:06:34.523Z,0
2017-09-05T00:07:15.054Z,0
2017-09-05T00:07:55.621Z,0
2017-09-05T00:08:36.196Z,0
2017-09-05T00:09:16.763Z,0
2017-09-05T00:09:57.342Z,0
2017-09-05T00:10:37.873Z,0
2017-09-05T00:11:18.412Z,0
2017-09-05T00:11:58.930Z,0
2017-09-05T00:12:39.460Z,0
2017-09-05T00:13:19.996Z,0
2017-09-05T00:14:00.526Z,0
2017-09-05T00:14:41.095Z,0
2017-09-05T00:15:21.627Z,0
2017-09-05T00:16:02.159Z,0
2017-09-05T00:16:43.350Z,0
2017-09-05T00:17:23.252Z,0
2017-09-05T00:18:03.809Z,0
2017-09-05T00:18:44.379Z,0
2017-09-05T00:19:24.871Z,0
2017-09-05T00:20:05.428Z,0
2017-09-05T00:20:45.931Z,0
2017-09-05T00:21:26.465Z,0
2017-09-05T00:22:07.058Z,0
2017-09-05T00:22:47.614Z,0
2017-09-05T00:23:28.158Z,0
2017-09-05T00:24:08.698Z,0
2017-09-05T00:24:49.226Z,0
2017-09-05T00:25:29.777Z,0
2017-09-05T00:26:10.321Z,0
2017-09-05T00:26:50.851Z,0
2017-09-05T00:27:31.487Z,0
2017-09-05T00:28:12.009Z,0
2017-09-05T00:28:52.531Z,0
2017-09-05T00:29:33.085Z,0
2017-09-05T00:30:13.623Z,0
2017-09-05T00:30:54.134Z,0
2017-09-05T00:31:34.700Z,0
2017-09-05T00:32:15.210Z,0
2017-09-05T00:32:55.755Z,0
2017-09-05T00:33:36.301Z,0
2017-09-05T00:34:16.791Z,0
2017-09-05T00:34:57.314Z,0
2017-09-05T00:35:37.856Z,0
2017-09-05T00:36:18.438Z,0
2017-09-05T00:36:58.935Z,0
2017-09-05T00:37:39.449Z,0
2017-09-05T00:38:20.048Z,0
2017-09-05T00:39:00.558Z,0
2017-09-05T00:39:41.097Z,0
2017-09-05T00:40:21.619Z,0
2017-09-05T00:41:02.169Z,0
2017-09-05T00:41:42.681Z,0
2017-09-05T00:42:23.168Z,0
2017-09-05T00:43:03.728Z,0
2017-09-05T00:43:44.314Z,0
2017-09-05T00:44:24.864Z,0
2017-09-05T00:45:05.416Z,0
2017-09-05T00:45:45.949Z,0
2017-09-05T00:46:26.441Z,0
2017-09-05T00:47:06.985Z,0
2017-09-05T00:47:47.552Z,0
2017-09-05T00:48:28.088Z,0
2017-09-05T00:49:08.621Z,0
2017-09-05T00:49:49.151Z,0
2017-09-05T00:50:29.710Z,0
2017-09-05T00:51:10.257Z,0
2017-09-05T00:51:50.827Z,0
2017-09-05T00:52:31.377Z,0
2017-09-05T00:53:11.966Z,0
2017-09-05T00:53:52.508Z,0
2017-09-05T00:54:33.009Z,0
2017-09-05T00:55:13.624Z,0
2017-09-05T00:55:54.131Z,0
2017-09-05T00:56:34.676Z,0
2017-09-05T00:57:15.277Z,0
2017-09-05T00:57:55.766Z,0
2017-09-05T00:58:36.299Z,0
2017-09-05T00:59:16.802Z,0
2017-09-05T00:59:57.324Z,0
2017-09-05T01:00:37.871Z,0
2017-09-05T01:01:18.421Z,0
2017-09-05T01:01:58.924Z,0
2017-09-05T01:02:39.429Z,0
2017-09-05T01:03:19.993Z,0
2017-09-05T01:04:00.544Z,0
2017-09-05T01:04:41.082Z,0
2017-09-05T01:05:21.587Z,0
2017-09-05T01:06:02.161Z,0
2017-09-05T01:06:42.700Z,0
2017-09-05T01:07:23.224Z,0
2017-09-05T01:08:03.746Z,0
2017-09-05T01:08:45.097Z,0
2017-09-05T01:09:25.586Z,0
2017-09-05T01:10:06.136Z,0
2017-09-05T01:10:46.659Z,0
2017-09-05T01:11:27.196Z,0
2017-09-05T01:12:07.760Z,0
2017-09-05T01:12:48.280Z,0
2017-09-05T01:13:28.793Z,0
2017-09-05T01:14:09.339Z,0
2017-09-05T01:14:49.840Z,0
2017-09-05T01:15:30.385Z,0
2017-09-05T01:16:10.937Z,0
2017-09-05T01:16:51.469Z,0
2017-09-05T01:17:32.075Z,0
2017-09-05T01:18:12.650Z,0
2017-09-05T01:18:53.201Z,0
2017-09-05T01:19:33.726Z,0
2017-09-05T01:20:14.240Z,0
2017-09-05T01:20:54.801Z,0
2017-09-05T01:21:35.335Z,0
2017-09-05T01:22:15.866Z,0
2017-09-05T01:22:56.432Z,0
2017-09-05T01:23:36.937Z,0
2017-09-05T01:24:17.529Z,0
2017-09-05T01:24:58.031Z,0
2017-09-05T01:25:38.671Z,0
2017-09-05T01:26:19.111Z,0
2017-09-05T01:26:59.686Z,0
2017-09-05T01:27:40.214Z,0
2017-09-05T01:28:20.741Z,0
2017-09-05T01:29:01.339Z,0
2017-09-05T01:29:41.779Z,0
2017-09-05T01:30:22.337Z,0
2017-09-05T01:31:02.881Z,0
2017-09-05T01:31:43.365Z,0
2017-09-05T01:32:23.943Z,0
2017-09-05T01:33:04.474Z,0
2017-09-05T01:33:45.015Z,0
2017-09-05T01:34:25.636Z,0
2017-09-05T01:35:06.145Z,0
2017-09-05T01:35:46.665Z,0
2017-09-05T01:36:27.217Z,0
2017-09-05T01:37:07.813Z,0
2017-09-05T01:37:48.275Z,0
2017-09-05T01:38:28.818Z,0
2017-09-05T01:39:09.372Z,0
2017-09-05T01:39:49.925Z,0
2017-09-05T01:40:30.467Z,0
2017-09-05T01:41:11.009Z,0
2017-09-05T01:41:51.539Z,0
2017-09-05T01:42:32.093Z,0
2017-09-05T01:43:12.649Z,0
2017-09-05T01:43:53.221Z,0
2017-09-05T01:44:33.745Z,0
2017-09-05T01:45:14.307Z,0
2017-09-05T01:45:54.860Z,0
2017-09-05T01:46:35.422Z,0
2017-09-05T01:47:15.951Z,0
2017-09-05T01:47:56.520Z,0
2017-09-05T01:48:37.070Z,0
2017-09-05T01:49:17.675Z,0
2017-09-05T01:49:58.205Z,0
2017-09-05T01:50:38.745Z,0
2017-09-05T01:51:19.281Z,0
2017-09-05T01:51:59.855Z,0
2017-09-05T01:52:40.420Z,0
2017-09-05T01:53:20.926Z,0
2017-09-05T01:54:01.489Z,0
2017-09-05T01:54:42.016Z,0
2017-09-05T01:55:22.572Z,0
2017-09-05T01:56:03.120Z,0
2017-09-05T01:56:43.710Z,0
2017-09-05T01:57:24.252Z,0
2017-09-05T01:58:04.763Z,0
2017-09-05T01:58:45.333Z,0
2017-09-05T01:59:25.878Z,0
2017-09-05T02:00:06.411Z,0
2017-09-05T02:00:46.941Z,0
2017-09-05T02:01:27.477Z,0
2017-09-05T02:02:08.053Z,0
2017-09-05T02:02:48.603Z,0
2017-09-05T02:03:29.198Z,0
2017-09-05T02:04:09.713Z,0
2017-09-05T02:04:50.244Z,0
2017-09-05T02:05:30.793Z,0
2017-09-05T02:06:11.346Z,0
2017-09-05T02:06:51.860Z,0
2017-09-05T02:07:32.438Z,0
2017-09-05T02:08:12.947Z,0
2017-09-05T02:08:53.507Z,0
2017-09-05T02:09:34.050Z,0
2017-09-05T02:10:14.577Z,0
2017-09-05T02:10:55.081Z,0
2017-09-05T02:11:35.607Z,0
2017-09-05T02:12:16.131Z,0
2017-09-05T02:12:56.661Z,0
2017-09-05T02:13:37.243Z,0
2017-09-05T02:14:17.791Z,0
2017-09-05T02:14:58.346Z,0
2017-09-05T02:15:38.855Z,0
2017-09-05T02:16:19.363Z,0
2017-09-05T02:16:59.938Z,0
2017-09-05T02:17:40.477Z,0
2017-09-05T02:18:21.053Z,0
2017-09-05T02:19:01.557Z,0
2017-09-05T02:19:42.140Z,0
2017-09-05T02:20:22.628Z,0
2017-09-05T02:21:03.227Z,0
2017-09-05T02:21:43.710Z,0
2017-09-05T02:22:24.293Z,0
2017-09-05T02:23:04.806Z,0
2017-09-05T02:23:45.587Z,0
2017-09-05T02:24:26.079Z,0
2017-09-05T02:25:06.669Z,0
2017-09-05T02:25:47.144Z,0
2017-09-05T02:26:27.692Z,0
2017-09-05T02:27:08.213Z,0
2017-09-05T02:27:48.781Z,0
2017-09-05T02:28:29.329Z,0
2017-09-05T02:29:09.860Z,0
2017-09-05T02:29:50.455Z,0
2017-09-05T02:30:30.999Z,0
2017-09-05T02:31:11.524Z,0
2017-09-05T02:31:52.090Z,0
2017-09-05T02:32:32.645Z,0
2017-09-05T02:33:13.234Z,0
2017-09-05T02:33:53.822Z,0
2017-09-05T02:34:34.331Z,0
2017-09-05T02:35:14.844Z,0
2017-09-05T02:35:55.368Z,0
2017-09-05T02:36:35.956Z,0
2017-09-05T02:37:16.508Z,0
2017-09-05T02:37:57.050Z,0
2017-09-05T02:38:37.584Z,0
2017-09-05T02:39:18.131Z,0
2017-09-05T02:39:58.682Z,0
2017-09-05T02:40:39.239Z,0
2017-09-05T02:41:19.765Z,0
2017-09-05T02:42:00.314Z,0
2017-09-05T02:42:40.863Z,0
2017-09-05T02:43:21.405Z,0
2017-09-05T02:44:01.908Z,0
2017-09-05T02:44:42.666Z,0
2017-09-05T02:45:23.021Z,0
2017-09-05T02:46:03.591Z,0
2017-09-05T02:46:44.115Z,0
2017-09-05T02:47:24.662Z,0
2017-09-05T02:48:05.241Z,0
2017-09-05T02:48:45.784Z,0
2017-09-05T02:49:26.397Z,0
2017-09-05T02:50:07.003Z,0
2017-09-05T02:50:47.525Z,0
2017-09-05T02:51:28.011Z,0
2017-09-05T02:52:08.579Z,0
2017-09-05T02:52:49.079Z,0
2017-09-05T02:53:29.619Z,0
2017-09-05T02:54:10.177Z,0
2017-09-05T02:54:50.726Z,0
2017-09-05T02:55:31.282Z,0
2017-09-05T02:56:11.824Z,0
2017-09-05T02:56:52.399Z,0
2017-09-05T02:57:32.975Z,0
2017-09-05T02:58:13.554Z,0
2017-09-05T02:58:54.028Z,0
2017-09-05T02:59:34.624Z,0
2017-09-05T03:00:15.196Z,0
2017-09-05T03:00:55.818Z,0
2017-09-05T03:01:36.332Z,0
2017-09-05T03:02:16.901Z,0
2017-09-05T03:02:57.409Z,0
2017-09-05T03:03:38.020Z,0
2017-09-05T03:04:18.533Z,0
2017-09-05T03:04:59.111Z,0
2017-09-05T03:05:39.634Z,0
2017-09-05T03:06:20.162Z,0
2017-09-05T03:07:00.745Z,0
2017-09-05T03:07:41.292Z,0
2017-09-05T03:08:21.843Z,0
2017-09-05T03:09:02.372Z,0
2017-09-05T03:09:42.841Z,0
2017-09-05T03:10:23.370Z,0
2017-09-05T03:11:03.944Z,0
2017-09-05T03:11:44.514Z,0
2017-09-05T03:12:25.029Z,0
2017-09-05T03:13:05.531Z,0
2017-09-05T03:13:46.104Z,0
2017-09-05T03:14:26.637Z,0
2017-09-05T03:15:07.168Z,0
2017-09-05T03:15:47.744Z,0
2017-09-05T03:16:28.209Z,0
2017-09-05T03:17:08.745Z,0
2017-09-05T03:17:49.397Z,0
2017-09-05T03:18:29.936Z,0
2017-09-05T03:19:10.461Z,0
2017-09-05T03:19:51.013Z,0
2017-09-05T03:20:31.548Z,0
2017-09-05T03:21:12.125Z,0
2017-09-05T03:21:52.582Z,0
2017-09-05T03:22:33.169Z,0
2017-09-05T03:23:13.689Z,0
2017-09-05T03:23:54.206Z,0
2017-09-05T03:24:34.801Z,0
2017-09-05T03:25:15.309Z,0
2017-09-05T03:25:55.853Z,0
2017-09-05T03:26:36.419Z,0
2017-09-05T03:27:16.946Z,0
2017-09-05T03:27:58.201Z,0
2017-09-05T03:28:38.747Z,0
2017-09-05T03:29:19.228Z,0
2017-09-05T03:29:59.780Z,0
2017-09-05T03:30:40.347Z,0
2017-09-05T03:31:20.879Z,0
2017-09-05T03:32:01.418Z,0
2017-09-05T03:32:41.933Z,0
2017-09-05T03:33:22.453Z,0
2017-09-05T03:34:03.045Z,0
2017-09-05T03:34:43.529Z,0
2017-09-05T03:35:24.090Z,0
2017-09-05T03:36:04.640Z,0
2017-09-05T03:36:45.136Z,0
2017-09-05T03:37:25.689Z,0
2017-09-05T03:38:06.230Z,0
2017-09-05T03:38:46.765Z,0
2017-09-05T03:39:27.337Z,0
2017-09-05T03:40:07.846Z,0
2017-09-05T03:40:48.386Z,0
2017-09-05T03:41:28.928Z,0
2017-09-05T03:42:09.448Z,0
2017-09-05T03:42:49.980Z,0
2017-09-05T03:43:30.532Z,0
2017-09-05T03:44:11.040Z,0
2017-09-05T03:44:51.570Z,0
2017-09-05T03:45:32.145Z,0
2017-09-05T03:46:12.648Z,0
2017-09-05T03:46:53.150Z,0
2017-09-05T03:47:33.715Z,0
2017-09-05T03:48:14.305Z,0
2017-09-05T03:48:54.861Z,0
2017-09-05T03:49:35.369Z,0
2017-09-05T03:50:15.922Z,0
2017-09-05T03:50:56.458Z,0
2017-09-05T03:51:37.058Z,0
2017-09-05T03:52:17.551Z,0
2017-09-05T03:52:58.119Z,0
2017-09-05T03:53:38.690Z,0
2017-09-05T03:54:19.301Z,0
2017-09-05T03:54:59.932Z,0
2017-09-05T03:55:40.446Z,0
2017-09-05T03:56:21.057Z,0
2017-09-05T03:57:01.536Z,0
2017-09-05T03:57:42.085Z,0
2017-09-05T03:58:22.630Z,0
2017-09-05T03:59:03.205Z,0
2017-09-05T03:59:43.715Z,0
2017-09-05T04:00:24.306Z,0
2017-09-05T04:01:04.814Z,0
2017-09-05T04:01:45.441Z,0
2017-09-05T04:02:25.910Z,0
2017-09-05T04:03:06.406Z,0
2017-09-05T04:03:46.991Z,0
2017-09-05T04:04:27.591Z,0
2017-09-05T04:05:08.149Z,0
2017-09-05T04:05:48.675Z,0
2017-09-05T04:06:29.219Z,0
2017-09-05T04:07:09.748Z,0
2017-09-05T04:07:50.287Z,0
2017-09-05T04:08:30.801Z,0
2017-09-05T04:09:11.351Z,0
2017-09-05T04:09:51.877Z,0
2017-09-05T04:10:32.417Z,0
2017-09-05T04:11:13.025Z,0
2017-09-05T04:11:53.569Z,0
2017-09-05T04:12:34.082Z,0
2017-09-05T04:13:14.647Z,0
2017-09-05T04:13:55.204Z,0
2017-09-05T04:14:35.729Z,0
2017-09-05T04:15:16.230Z,0
2017-09-05T04:15:56.806Z,0
2017-09-05T04:16:37.303Z,0
2017-09-05T04:17:17.845Z,0
2017-09-05T04:17:58.387Z,0
2017-09-05T04:18:38.914Z,0
2017-09-05T04:19:19.473Z,0
2017-09-05T04:20:00.040Z,0
2017-09-05T04:20:40.587Z,0
2017-09-05T04:21:21.124Z,0
2017-09-05T04:22:01.644Z,0
2017-09-05T04:22:42.202Z,0
2017-09-05T04:23:22.698Z,0
2017-09-05T04:24:03.231Z,0
2017-09-05T04:24:43.738Z,0
2017-09-05T04:25:24.444Z,0
2017-09-05T04:26:04.974Z,0
2017-09-05T04:26:45.532Z,0
2017-09-05T04:27:26.046Z,0
2017-09-05T04:28:06.552Z,0
2017-09-05T04:28:47.127Z,0
2017-09-05T04:29:27.636Z,0
2017-09-05T04:30:08.161Z,0
2017-09-05T04:30:48.697Z,0
2017-09-05T04:31:29.589Z,0
2017-09-05T04:32:10.185Z,0
2017-09-05T04:32:50.722Z,0
2017-09-05T04:33:31.971Z,0
2017-09-05T04:34:13.148Z,0
2017-09-05T04:34:53.711Z,0
2017-09-05T04:35:34.219Z,0
2017-09-05T04:36:14.861Z,0
2017-09-05T04:36:55.713Z,0
2017-09-05T04:37:36.269Z,0
2017-09-05T04:38:16.917Z,0
2017-09-05T04:38:57.429Z,0
2017-09-05T04:39:38.031Z,0
2017-09-05T04:40:18.672Z,0
2017-09-05T04:40:59.212Z,0
2017-09-05T04:41:39.740Z,0
2017-09-05T04:42:20.350Z,0
2017-09-05T04:43:00.925Z,0
2017-09-05T04:43:41.450Z,0
2017-09-05T04:44:21.970Z,0
2017-09-05T04:45:02.591Z,0
2017-09-05T04:45:43.114Z,0
2017-09-05T04:46:23.650Z,0
2017-09-05T04:47:04.202Z,0
2017-09-05T04:47:44.786Z,0
2017-09-05T04:48:25.274Z,0
2017-09-05T04:49:05.833Z,0
2017-09-05T04:49:46.358Z,0
2017-09-05T04:50:26.958Z,0
2017-09-05T04:51:07.490Z,0
2017-09-05T04:51:48.039Z,0
2017-09-05T04:52:28.628Z,0
2017-09-05T04:53:09.112Z,0
2017-09-05T04:53:49.792Z,0
2017-09-05T04:54:30.350Z,0
2017-09-05T04:55:10.891Z,0
2017-09-05T04:55:51.500Z,0
2017-09-05T04:56:32.024Z,0
2017-09-05T04:57:12.592Z,0
2017-09-05T04:57:53.148Z,0
2017-09-05T04:58:33.735Z,0
2017-09-05T04:59:14.255Z,0
2017-09-05T04:59:54.792Z,0
2017-09-05T05:00:35.332Z,0
2017-09-05T05:01:15.895Z,0
2017-09-05T05:01:56.408Z,0
2017-09-05T05:02:37.053Z,0
2017-09-05T05:03:17.631Z,0
2017-09-05T05:03:58.216Z,0
2017-09-05T05:04:38.716Z,0
2017-09-05T05:05:19.295Z,0
2017-09-05T05:05:59.868Z,5
2017-09-05T05:06:40.398Z,5
2017-09-05T05:07:20.958Z,5
2017-09-05T05:08:03.580Z,5
2017-09-05T05:08:44.101Z,5
2017-09-05T05:09:25.243Z,5
2017-09-05T05:10:05.779Z,5
2017-09-05T05:10:46.321Z,5
2017-09-05T05:11:26.900Z,5
2017-09-05T05:12:07.373Z,5
2017-09-05T05:12:48.111Z,5
2017-09-05T05:13:28.687Z,5
2017-09-05T05:14:09.189Z,5
2017-09-05T05:14:50.056Z,5
2017-09-05T05:15:31.555Z,5
2017-09-05T05:16:12.123Z,5
2017-09-05T05:16:52.756Z,5
2017-09-05T05:17:33.356Z,5
2017-09-05T05:18:13.890Z,10
2017-09-05T05:18:54.419Z,10
2017-09-05T05:19:34.976Z,10
2017-09-05T05:20:15.531Z,10
2017-09-05T05:20:56.117Z,10
2017-09-05T05:21:37.206Z,10
2017-09-05T05:22:18.595Z,10
2017-09-05T05:22:59.164Z,10
2017-09-05T05:23:39.752Z,15
2017-09-05T05:24:20.311Z,15
2017-09-05T05:25:01.026Z,15
2017-09-05T05:25:41.609Z,15
2017-09-05T05:26:23.153Z,15
2017-09-05T05:27:03.634Z,15
2017-09-05T05:27:44.381Z,15
2017-09-05T05:28:24.943Z,15
2017-09-05T05:29:05.682Z,15
2017-09-05T05:29:46.172Z,15
2017-09-05T05:30:26.759Z,20
2017-09-05T05:31:07.276Z,20
2017-09-05T05:31:48.957Z,20
2017-09-05T05:32:29.479Z,20
2017-09-05T05:33:10.073Z,20
2017-09-05T05:33:50.595Z,20
2017-09-05T05:34:31.227Z,20
2017-09-05T05:35:11.760Z,25
2017-09-05T05:35:52.328Z,25
2017-09-05T05:36:32.860Z,25
2017-09-05T05:37:13.552Z,30
2017-09-05T05:37:54.142Z,30
2017-09-05T05:38:35.591Z,30
2017-09-05T05:39:16.724Z,30
2017-09-05T05:39:57.333Z,35
2017-09-05T05:40:37.733Z,35
2017-09-05T05:41:18.319Z,35
2017-09-05T05:41:59.035Z,35
2017-09-05T05:42:40.063Z,35
2017-09-05T05:43:20.564Z,40
2017-09-05T05:44:01.768Z,40
2017-09-05T05:44:42.440Z,40
2017-09-05T05:45:23.371Z,40
2017-09-05T05:46:04.082Z,45
2017-09-05T05:46:44.900Z,45
2017-09-05T05:47:25.390Z,45
2017-09-05T05:48:06.050Z,45
2017-09-05T05:48:46.684Z,50
2017-09-05T05:49:27.288Z,50
2017-09-05T05:50:07.821Z,55
2017-09-05T05:50:49.577Z,55
2017-09-05T05:51:30.365Z,55
2017-09-05T05:52:11.671Z,55
2017-09-05T05:52:52.336Z,55
2017-09-05T05:53:32.727Z,55
2017-09-05T05:54:13.439Z,60
2017-09-05T05:54:53.867Z,60
2017-09-05T05:55:34.468Z,65
2017-09-05T05:56:15.265Z,65
2017-09-05T05:56:55.828Z,65
2017-09-05T05:57:36.413Z,65
2017-09-05T05:58:17.275Z,60
2017-09-05T05:58:57.579Z,60
2017-09-05T05:59:38.138Z,60
2017-09-05T06:00:18.632Z,65
2017-09-05T06:00:59.272Z,65
2017-09-05T06:01:39.774Z,65
2017-09-05T06:02:20.460Z,65
2017-09-05T06:03:01.033Z,65
2017-09-05T06:03:41.697Z,65
2017-09-05T06:04:22.336Z,65
2017-09-05T06:05:02.768Z,65
2017-09-05T06:05:43.334Z,65
2017-09-05T06:06:23.905Z,65
2017-09-05T06:07:04.372Z,65
2017-09-05T06:07:44.927Z,70
2017-09-05T06:08:25.477Z,70
2017-09-05T06:09:06.021Z,70
2017-09-05T06:09:46.625Z,75
2017-09-05T06:10:27.208Z,75
2017-09-05T06:11:07.911Z,80
2017-09-05T06:11:48.386Z,80
2017-09-05T06:12:28.984Z,80
2017-09-05T06:13:09.512Z,85
2017-09-05T06:13:50.033Z,85
2017-09-05T06:14:30.587Z,90
2017-09-05T06:15:11.109Z,90
2017-09-05T06:15:51.993Z,95
2017-09-05T06:16:33.069Z,95
2017-09-05T06:17:14.161Z,100
2017-09-05T06:17:54.734Z,100
2017-09-05T06:18:35.322Z,105
2017-09-05T06:19:15.902Z,105
2017-09-05T06:19:56.416Z,105
2017-09-05T06:20:37.001Z,105
2017-09-05T06:21:17.547Z,105
2017-09-05T06:21:58.085Z,105
2017-09-05T06:22:38.589Z,105
2017-09-05T06:23:19.143Z,105
2017-09-05T06:23:59.672Z,105
2017-09-05T06:24:40.194Z,105
2017-09-05T06:25:20.731Z,105
2017-09-05T06:26:01.300Z,105
2017-09-05T06:26:41.835Z,105
2017-09-05T06:27:22.801Z,105
2017-09-05T06:28:03.348Z,110
2017-09-05T06:28:43.889Z,110
2017-09-05T06:29:24.426Z,115
2017-09-05T06:30:04.968Z,115
2017-09-05T06:30:45.439Z,120
2017-09-05T06:31:26.038Z,120
2017-09-05T06:32:06.581Z,120
2017-09-05T06:32:47.093Z,120
2017-09-05T06:33:27.760Z,120
2017-09-05T06:34:08.268Z,120
2017-09-05T06:34:48.806Z,120
2017-09-05T06:35:29.385Z,120
2017-09-05T06:36:09.921Z,125
2017-09-05T06:36:50.389Z,125
2017-09-05T06:37:30.970Z,130
2017-09-05T06:38:11.496Z,130
2017-09-05T06:38:52.035Z,135
2017-09-05T06:39:32.588Z,135
2017-09-05T06:40:13.142Z,140
2017-09-05T06:40:53.626Z,140
2017-09-05T06:41:35.115Z,140
2017-09-05T06:42:15.696Z,140
2017-09-05T06:42:56.220Z,140
2017-09-05T06:43:36.727Z,135
2017-09-05T06:44:17.306Z,135
2017-09-05T06:44:57.876Z,140
2017-09-05T06:45:38.390Z,140
2017-09-05T06:46:18.976Z,140
2017-09-05T06:46:59.509Z,140
2017-09-05T06:47:40.232Z,145
2017-09-05T06:48:20.779Z,145
2017-09-05T06:49:01.341Z,145
2017-09-05T06:49:41.991Z,150
2017-09-05T06:50:22.439Z,150
2017-09-05T06:51:02.967Z,150
2017-09-05T06:51:46.346Z,150
2017-09-05T06:52:26.886Z,150
2017-09-05T06:53:07.448Z,150
2017-09-05T06:53:47.968Z,150
2017-09-05T06:54:28.486Z,155
2017-09-05T06:55:09.042Z,150
2017-09-05T06:55:49.627Z,150
2017-09-05T06:56:30.192Z,150
2017-09-05T06:57:10.733Z,155
2017-09-05T06:57:51.293Z,170
2017-09-05T06:58:31.875Z,150
2017-09-05T06:59:12.414Z,155
2017-09-05T06:59:52.955Z,150
2017-09-05T07:00:33.493Z,155
2017-09-05T07:01:14.055Z,155
2017-09-05T07:01:54.653Z,165
2017-09-05T07:02:35.374Z,195
2017-09-05T07:03:15.902Z,165
2017-09-05T07:03:56.472Z,185
2017-09-05T07:04:36.984Z,170
2017-09-05T07:05:17.585Z,170
2017-09-05T07:05:58.127Z,185
2017-09-05T07:06:38.752Z,205
2017-09-05T07:07:19.255Z,180
2017-09-05T07:07:59.804Z,175
2017-09-05T07:08:40.357Z,170
2017-09-05T07:09:20.898Z,170
2017-09-05T07:10:01.432Z,175
2017-09-05T07:10:42.061Z,175
2017-09-05T07:11:22.671Z,175
2017-09-05T07:12:03.156Z,195
2017-09-05T07:12:43.755Z,190
2017-09-05T07:13:24.288Z,240
2017-09-05T07:14:04.818Z,185
2017-09-05T07:14:45.410Z,245
2017-09-05T07:15:25.916Z,205
2017-09-05T07:16:06.449Z,215
2017-09-05T07:16:47.023Z,275
2017-09-05T07:17:27.679Z,255
2017-09-05T07:18:08.214Z,210
2017-09-05T07:18:48.786Z,255
2017-09-05T07:19:29.313Z,225
2017-09-05T07:20:09.918Z,220
2017-09-05T07:20:50.399Z,200
2017-09-05T07:21:30.990Z,230
2017-09-05T07:22:11.528Z,195
2017-09-05T07:22:52.051Z,160
2017-09-05T07:23:32.612Z,160
2017-09-05T07:24:13.234Z,210
2017-09-05T07:24:53.879Z,200
2017-09-05T07:25:34.386Z,180
2017-09-05T07:26:14.932Z,215
2017-09-05T07:26:55.492Z,230
2017-09-05T07:27:36.014Z,240
2017-09-05T07:28:16.571Z,235
2017-09-05T07:28:57.150Z,235
2017-09-05T07:29:37.695Z,225
2017-09-05T07:30:18.269Z,215
2017-09-05T07:30:58.815Z,205
2017-09-05T07:31:39.359Z,180
2017-09-05T07:32:19.875Z,185
2017-09-05T07:33:00.442Z,170
2017-09-05T07:33:40.972Z,160
2017-09-05T07:34:21.514Z,165
2017-09-05T07:35:02.031Z,190
2017-09-05T07:35:42.616Z,205
2017-09-05T07:36:23.105Z,210
2017-09-05T07:37:03.707Z,205
2017-09-05T07:37:44.200Z,195
2017-09-05T07:38:24.813Z,210
2017-09-05T07:39:05.381Z,210
2017-09-05T07:39:46.005Z,205
2017-09-05T07:40:26.570Z,185
2017-09-05T07:41:07.124Z,235
2017-09-05T07:41:47.744Z,230
2017-09-05T07:42:28.333Z,210
2017-09-05T07:43:08.911Z,205
2017-09-05T07:43:49.426Z,195
2017-09-05T07:44:29.995Z,195
2017-09-05T07:45:10.550Z,190
2017-09-05T07:45:51.102Z,185
2017-09-05T07:46:31.665Z,180
2017-09-05T07:47:12.208Z,180
2017-09-05T07:47:52.759Z,180
2017-09-05T07:48:33.331Z,180
2017-09-05T07:49:13.916Z,180
2017-09-05T07:49:54.500Z,175
2017-09-05T07:50:35.064Z,175
2017-09-05T07:51:15.626Z,180
2017-09-05T07:51:56.186Z,205
2017-09-05T07:52:36.750Z,200
2017-09-05T07:53:17.286Z,230
2017-09-05T07:53:57.865Z,225
2017-09-05T07:54:38.405Z,225
2017-09-05T07:55:18.944Z,205
2017-09-05T07:55:59.537Z,195
2017-09-05T07:56:40.050Z,180
2017-09-05T07:57:20.706Z,170
2017-09-05T07:58:01.258Z,165
2017-09-05T07:58:41.824Z,160
2017-09-05T07:59:22.355Z,155
2017-09-05T08:00:02.884Z,155
2017-09-05T08:00:43.446Z,155
2017-09-05T08:01:23.975Z,165
2017-09-05T08:02:04.546Z,170
2017-09-05T08:02:45.123Z,170
2017-09-05T08:03:25.675Z,190
2017-09-05T08:04:06.224Z,200
2017-09-05T08:04:46.818Z,200
2017-09-05T08:05:27.340Z,210
2017-09-05T08:06:07.912Z,210
2017-09-05T08:06:48.481Z,210
2017-09-05T08:07:29.049Z,205
2017-09-05T08:08:09.609Z,200
2017-09-05T08:08:50.148Z,195
2017-09-05T08:09:30.722Z,190
2017-09-05T08:10:11.256Z,180
2017-09-05T08:10:51.853Z,170
2017-09-05T08:11:32.368Z,160
2017-09-05T08:12:12.923Z,155
2017-09-05T08:12:53.527Z,170
2017-09-05T08:13:34.190Z,160
2017-09-05T08:14:14.748Z,155
2017-09-05T08:14:55.333Z,155
2017-09-05T08:15:35.875Z,145
2017-09-05T08:16:16.439Z,145
2017-09-05T08:16:56.983Z,140
2017-09-05T08:17:37.646Z,145
2017-09-05T08:18:18.191Z,140
2017-09-05T08:18:58.723Z,135
2017-09-05T08:19:39.272Z,140
2017-09-05T08:20:19.826Z,135
2017-09-05T08:21:00.377Z,140
2017-09-05T08:21:40.924Z,145
2017-09-05T08:22:21.473Z,140
2017-09-05T08:23:01.980Z,140
2017-09-05T08:23:42.567Z,135
2017-09-05T08:24:23.095Z,130
2017-09-05T08:25:03.652Z,130
2017-09-05T08:25:44.151Z,130
2017-09-05T08:26:24.688Z,120
2017-09-05T08:27:05.243Z,130
2017-09-05T08:27:45.779Z,115
2017-09-05T08:28:26.363Z,125
2017-09-05T08:29:06.887Z,130
2017-09-05T08:29:47.438Z,130
2017-09-05T08:30:27.976Z,130
2017-09-05T08:31:08.477Z,130
2017-09-05T08:31:49.028Z,130
2017-09-05T08:32:29.584Z,120
2017-09-05T08:33:10.145Z,130
2017-09-05T08:33:50.682Z,135
2017-09-05T08:34:31.277Z,145
2017-09-05T08:35:11.814Z,160
2017-09-05T08:35:52.352Z,170
2017-09-05T08:36:32.900Z,170
2017-09-05T08:37:13.470Z,175
2017-09-05T08:37:54.056Z,170
2017-09-05T08:38:34.615Z,160
2017-09-05T08:39:15.210Z,155
2017-09-05T08:39:55.753Z,145
2017-09-05T08:40:36.251Z,140
2017-09-05T08:41:16.794Z,135
2017-09-05T08:41:57.446Z,130
2017-09-05T08:42:37.951Z,130
2017-09-05T08:43:18.501Z,130
2017-09-05T08:43:59.084Z,125
2017-09-05T08:44:39.619Z,125
2017-09-05T08:45:20.216Z,120
2017-09-05T08:46:00.739Z,120
2017-09-05T08:46:41.400Z,120
2017-09-05T08:47:21.992Z,120
2017-09-05T08:48:02.608Z,115
2017-09-05T08:48:43.101Z,115
2017-09-05T08:49:23.631Z,115
2017-09-05T08:50:04.237Z,120
2017-09-05T08:50:44.787Z,120
2017-09-05T08:51:25.330Z,120
2017-09-05T08:52:05.888Z,120
2017-09-05T08:52:46.430Z,125
2017-09-05T08:53:26.942Z,130
2017-09-05T08:54:07.476Z,135
2017-09-05T08:54:48.048Z,145
2017-09-05T08:55:28.569Z,145
2017-09-05T08:56:09.115Z,155
2017-09-05T08:56:49.635Z,160
2017-09-05T08:57:30.180Z,160
2017-09-05T08:58:10.761Z,165
2017-09-05T08:58:51.308Z,155
2017-09-05T08:59:31.861Z,150
2017-09-05T09:00:12.449Z,150
2017-09-05T09:00:53.061Z,160
2017-09-05T09:01:33.621Z,150
2017-09-05T09:02:14.160Z,150
2017-09-05T09:02:54.723Z,145
2017-09-05T09:03:35.282Z,145
2017-09-05T09:04:15.840Z,145
2017-09-05T09:04:56.375Z,140
2017-09-05T09:05:36.916Z,140
2017-09-05T09:06:17.442Z,155
2017-09-05T09:06:57.988Z,150
2017-09-05T09:07:38.495Z,140
2017-09-05T09:08:19.009Z,140
2017-09-05T09:08:59.592Z,140
2017-09-05T09:09:40.142Z,155
2017-09-05T09:10:20.660Z,160
2017-09-05T09:11:01.222Z,165
2017-09-05T09:11:41.747Z,165
2017-09-05T09:12:22.337Z,165
2017-09-05T09:13:02.833Z,165
2017-09-05T09:13:43.380Z,170
2017-09-05T09:14:23.940Z,170
2017-09-05T09:15:04.492Z,165
2017-09-05T09:15:45.056Z,160
2017-09-05T09:16:25.581Z,150
2017-09-05T09:17:06.127Z,145
2017-09-05T09:17:46.682Z,145
2017-09-05T09:18:27.206Z,135
2017-09-05T09:19:07.770Z,130
2017-09-05T09:19:48.312Z,130
2017-09-05T09:20:28.800Z,130
2017-09-05T09:21:09.345Z,140
2017-09-05T09:21:49.926Z,160
2017-09-05T09:22:30.416Z,170
2017-09-05T09:23:11.002Z,185
2017-09-05T09:23:51.522Z,180
2017-09-05T09:24:32.091Z,200
2017-09-05T09:25:12.626Z,200
2017-09-05T09:25:53.177Z,205
2017-09-05T09:26:33.688Z,205
2017-09-05T09:27:14.277Z,200
2017-09-05T09:27:54.850Z,195
2017-09-05T09:28:35.395Z,195
2017-09-05T09:29:15.928Z,190
2017-09-05T09:29:56.491Z,190
2017-09-05T09:30:37.027Z,190
2017-09-05T09:31:17.593Z,210
2017-09-05T09:31:58.139Z,220
2017-09-05T09:32:38.705Z,210
2017-09-05T09:33:19.270Z,230
2017-09-05T09:33:59.854Z,230
2017-09-05T09:34:40.387Z,230
2017-09-05T09:35:20.917Z,230
2017-09-05T09:36:01.445Z,235
2017-09-05T09:36:41.964Z,235
2017-09-05T09:37:22.552Z,235
2017-09-05T09:38:03.127Z,235
2017-09-05T09:38:43.652Z,225
2017-09-05T09:39:24.278Z,235
2017-09-05T09:40:04.747Z,230
2017-09-05T09:40:45.380Z,220
2017-09-05T09:41:25.938Z,220
2017-09-05T09:42:06.534Z,210
2017-09-05T09:42:47.033Z,205